Time;durP1;ratioP1;P1;durP2;ratioP2;P2;SDS_P1;SDS_P2;PMS_P1;PMS_P2;Temp;Humidity;BMP_temperature;BMP_pressure;BME280_temperature;BME280_humidity;BME280_pressure;Samples;Min_cycle;Max_cycle;Signal;HPM_P1;HPM_P2
2023/02/10 00:01:25;;;;;;;7.67;4.93;;;-1.80;99.90;-2.40;102190.00;;;;4912831;28;90645;-64
2023/02/10 00:03:51;;;;;;;13.13;7.50;;;-1.90;99.50;-2.40;102192.00;;;;4915997;28;87280;-64
2023/02/10 00:06:19;;;;;;;11.77;6.83;;;-1.90;99.90;-2.50;102198.00;;;;4914271;28;88073;-65
2023/02/10 00:08:54;;;;;;;9.90;5.57;;;-2.10;99.90;-2.60;102188.00;;;;4912222;28;93524;-65
2023/02/10 00:11:56;;;;;;;10.77;6.53;;;-2.60;99.90;-2.60;102191.00;;;;4930372;28;89012;-64
2023/02/10 00:14:07;;;;;;;9.87;6.07;;;-2.10;99.90;-2.70;102193.00;;;;4915779;28;87807;-64
2023/02/10 00:16:34;;;;;;;11.70;6.53;;;-2.20;99.90;-2.80;102197.00;;;;4914950;28;109604;-65
2023/02/10 00:19:00;;;;;;;10.00;5.97;;;-2.20;99.90;-2.80;102182.00;;;;4916300;28;87815;-64
2023/02/10 00:21:25;;;;;;;10.40;6.10;;;-2.30;99.90;-2.80;102190.00;;;;4917281;28;111172;-64
2023/02/10 00:23:51;;;;;;;9.73;6.30;;;-2.40;99.90;-2.90;102191.00;;;;4915965;28;108810;-64
2023/02/10 00:26:18;;;;;;;10.23;5.97;;;-2.30;99.90;-2.90;102181.00;;;;4915226;28;117113;-64
2023/02/10 00:28:43;;;;;;;16.93;6.57;;;-2.40;99.90;-2.90;102180.00;;;;4916894;28;115920;-66
2023/02/10 00:31:13;;;;;;;15.17;6.47;;;-2.50;99.90;-2.90;102181.00;;;;4916678;28;89641;-63
2023/02/10 00:33:40;;;;;;;10.03;6.33;;;-2.40;99.90;-2.90;102184.00;;;;4915029;28;87743;-66
2023/02/10 00:36:11;;;;;;;9.23;5.77;;;-2.50;99.90;-2.90;102188.00;;;;4915474;28;90099;-64
2023/02/10 00:38:38;;;;;;;10.13;5.80;;;-2.40;99.90;-2.90;102189.00;;;;4912293;28;88853;-65
2023/02/10 00:41:14;;;;;;;9.37;5.67;;;-2.50;99.90;-3.00;102186.00;;;;4912344;28;87831;-64
2023/02/10 00:43:40;;;;;;;14.13;6.73;;;-2.50;99.90;-3.00;102197.00;;;;4913466;28;87934;-64
2023/02/10 00:46:06;;;;;;;11.50;6.93;;;-2.50;99.90;-3.00;102194.00;;;;4908670;28;88189;-63
2023/02/10 00:48:33;;;;;;;10.73;6.70;;;-2.60;99.90;-3.00;102184.00;;;;4914392;28;118102;-63
2023/02/10 00:50:59;;;;;;;13.70;5.93;;;-2.50;99.90;-3.10;102183.00;;;;4916190;28;92436;-63
2023/02/10 00:53:25;;;;;;;10.03;6.13;;;-3.40;99.90;-3.10;102198.00;;;;4912329;28;108966;-63
2023/02/10 00:55:50;;;;;;;8.93;5.93;;;-2.60;99.90;-3.10;102208.00;;;;4914980;28;89181;-65
2023/02/10 00:58:16;;;;;;;8.47;5.40;;;-2.60;99.90;-3.10;102203.00;;;;4914214;28;101061;-63
2023/02/10 01:00:42;;;;;;;10.53;5.53;;;-2.70;99.90;-3.20;102227.00;;;;4912053;28;88828;-63
2023/02/10 01:03:08;;;;;;;10.40;6.10;;;-2.70;99.90;-3.20;102217.00;;;;4917814;28;108648;-66
2023/02/10 01:05:34;;;;;;;9.73;5.57;;;-2.70;99.90;-3.30;102223.00;;;;4915589;28;88269;-64
2023/02/10 01:07:59;;;;;;;11.03;6.67;;;-2.70;99.90;-3.30;102225.00;;;;4912730;28;117602;-63
2023/02/10 01:10:25;;;;;;;9.27;6.07;;;-2.70;99.90;-3.40;102226.00;;;;4911193;28;111232;-64
2023/02/10 01:12:50;;;;;;;13.53;6.60;;;-2.80;99.90;-3.40;102232.00;;;;4913308;28;108879;-64
2023/02/10 01:15:16;;;;;;;14.40;6.17;;;-2.80;99.90;-3.40;102234.00;;;;4914724;28;115586;-64
2023/02/10 01:17:42;;;;;;;10.83;6.07;;;-2.70;99.90;-3.40;102231.00;;;;4914289;28;107599;-63
2023/02/10 01:20:08;;;;;;;13.73;6.17;;;-2.90;99.90;-3.40;102215.00;;;;4911519;28;109757;-64
2023/02/10 01:22:35;;;;;;;11.53;6.00;;;-2.90;99.90;-3.50;102211.00;;;;4915394;28;94131;-64
2023/02/10 01:25:01;;;;;;;9.10;5.83;;;-2.90;99.90;-3.40;102213.00;;;;4926793;28;89157;-63
2023/02/10 01:27:27;;;;;;;9.10;5.57;;;-3.00;99.90;-3.30;102226.00;;;;4911579;28;105908;-63
2023/02/10 01:29:52;;;;;;;12.03;6.90;;;-2.90;99.90;-3.20;102227.00;;;;4914569;28;111269;-62
2023/02/10 01:32:18;;;;;;;12.47;6.13;;;-2.70;99.90;-3.00;102228.00;;;;4913055;28;87773;-64
2023/02/10 01:34:44;;;;;;;10.37;7.03;;;-2.70;99.90;-2.90;102231.00;;;;4909262;28;117639;-63
2023/02/10 01:37:10;;;;;;;8.73;5.73;;;-2.00;99.90;-2.80;102215.00;;;;4911471;28;89027;-64
2023/02/10 01:39:35;;;;;;;12.03;5.83;;;-2.40;99.90;-2.60;102233.00;;;;4911429;28;110754;-64
2023/02/10 01:42:02;;;;;;;10.63;6.33;;;-2.30;99.90;-2.50;102226.00;;;;4913332;28;100461;-64
2023/02/10 01:44:28;;;;;;;9.63;5.67;;;-2.20;99.90;-2.40;102213.00;;;;4915453;28;89062;-65
2023/02/10 01:46:55;;;;;;;8.23;5.57;;;-2.10;99.90;-2.30;102208.00;;;;4912840;28;88581;-64
2023/02/10 01:49:25;;;;;;;11.40;6.50;;;-1.90;99.90;-2.20;102204.00;;;;4915182;28;97121;-64
2023/02/10 01:52:00;;;;;;;14.87;6.10;;;-1.80;99.90;-2.10;102196.00;;;;4910666;28;98507;-64
2023/02/10 01:54:35;;;;;;;6.83;5.47;;;-1.80;99.90;-2.00;102203.00;;;;4916790;28;98189;-65
2023/02/10 01:57:01;;;;;;;10.83;6.13;;;-1.60;99.90;-1.90;102210.00;;;;4911980;28;111007;-66
2023/02/10 01:59:32;;;;;;;6.07;5.13;;;-1.50;99.90;-1.80;102194.00;;;;4914111;28;110594;-65
2023/02/10 02:02:00;;;;;;;12.17;6.73;;;-1.40;99.90;-1.70;102209.00;;;;4928002;28;95635;-63
2023/02/10 02:04:26;;;;;;;14.17;6.13;;;-1.30;99.90;-1.60;102215.00;;;;4911884;28;92125;-64
2023/02/10 02:06:52;;;;;;;9.87;6.07;;;-1.20;99.90;-1.40;102218.00;;;;4913944;28;112171;-64
2023/02/10 02:09:18;;;;;;;8.47;4.47;;;-1.10;99.90;-1.30;102212.00;;;;4910636;28;109345;-64
2023/02/10 02:12:05;;;;;;;7.27;4.70;;;-1.00;99.90;-1.30;102203.00;;;;4921104;28;107788;-64
2023/02/10 02:15:18;;;;;;;10.63;6.10;;;-0.90;99.90;-1.20;102197.00;;;;4923356;28;113147;-66
2023/02/10 02:18:36;;;;;;;9.60;5.67;;;-0.80;99.90;-1.10;102214.00;;;;4911633;28;88642;-65
2023/02/10 02:21:58;;;;;;;10.90;6.17;;;-0.70;99.90;-1.00;102228.00;;;;4910893;28;87882;-65
2023/02/10 02:25:07;;;;;;;9.03;5.63;;;-0.60;99.90;-0.90;102226.00;;;;4908498;28;87937;-64
2023/02/10 02:28:11;;;;;;;10.13;6.17;;;-0.60;99.90;-0.80;102215.00;;;;4918455;28;110156;-64
2023/02/10 02:30:46;;;;;;;11.27;5.73;;;-0.40;99.90;-0.70;102211.00;;;;4923205;28;88306;-64
2023/02/10 02:33:33;;;;;;;8.53;5.23;;;-0.50;99.90;-0.70;102205.00;;;;4924148;28;87950;-65
2023/02/10 02:36:17;;;;;;;8.23;5.53;;;-0.30;99.90;-0.60;102220.00;;;;4915935;28;87093;-65
2023/02/10 02:38:43;;;;;;;6.90;5.47;;;-0.30;99.90;-0.60;102227.00;;;;4911985;28;110666;-65
2023/02/10 02:41:10;;;;;;;8.40;5.30;;;-0.20;99.90;-0.50;102217.00;;;;4910040;28;119145;-65
2023/02/10 02:43:38;;;;;;;8.27;5.27;;;-0.20;99.90;-0.50;102215.00;;;;4913263;28;103261;-65
2023/02/10 02:46:14;;;;;;;5.30;4.77;;;-0.20;99.90;-0.40;102215.00;;;;4906558;28;108848;-65
2023/02/10 02:49:08;;;;;;;7.73;4.83;;;-0.10;99.90;-0.40;102216.00;;;;4921385;28;112490;-65
2023/02/10 02:52:00;;;;;;;9.50;5.30;;;-0.10;99.90;-0.40;102208.00;;;;4941033;28;87940;-64
2023/02/10 02:54:42;;;;;;;8.60;5.40;;;0.00;99.80;-0.30;102210.00;;;;4927311;28;87900;-64
2023/02/10 02:57:34;;;;;;;6.83;4.33;;;0.10;99.90;-0.30;102214.00;;;;4914972;28;88001;-65
2023/02/10 03:00:13;;;;;;;9.80;5.30;;;0.00;99.90;-0.20;102213.00;;;;4913495;28;103912;-66
2023/02/10 03:02:41;;;;;;;8.20;5.20;;;0.10;99.50;-0.20;102220.00;;;;4914209;28;87162;-65
2023/02/10 03:05:08;;;;;;;5.73;4.67;;;0.20;99.70;-0.20;102229.00;;;;4922404;28;87770;-65
2023/02/10 03:07:34;;;;;;;6.23;5.27;;;0.10;99.50;-0.10;102241.00;;;;4913541;28;87787;-64
2023/02/10 03:10:00;;;;;;;7.87;4.90;;;0.20;99.30;-0.10;102255.00;;;;4913173;28;89526;-64
2023/02/10 03:12:26;;;;;;;7.40;4.83;;;0.20;99.30;-0.10;102243.00;;;;4912942;28;91654;-65
2023/02/10 03:14:52;;;;;;;8.47;4.93;;;0.20;99.20;-0.10;102253.00;;;;4909878;28;110983;-66
2023/02/10 03:17:17;;;;;;;9.03;4.53;;;0.30;99.40;-0.10;102248.00;;;;4912050;28;108829;-65
2023/02/10 03:19:43;;;;;;;8.47;5.53;;;0.20;99.90;-0.20;102251.00;;;;4912560;28;118894;-65
2023/02/10 03:22:09;;;;;;;7.60;5.57;;;0.20;99.90;-0.20;102243.00;;;;4910963;28;116857;-67
2023/02/10 03:24:34;;;;;;;7.00;5.43;;;0.20;99.90;-0.30;102241.00;;;;4909727;28;93910;-65
2023/02/10 03:27:00;;;;;;;10.10;5.67;;;0.10;99.90;-0.40;102245.00;;;;4909164;28;98548;-64
2023/02/10 03:29:26;;;;;;;13.13;6.43;;;0.50;99.90;-0.50;102248.00;;;;4911861;28;117547;-64
2023/02/10 03:31:51;;;;;;;6.97;5.57;;;0.00;99.90;-0.50;102249.00;;;;4910382;28;117325;-65
2023/02/10 03:34:17;;;;;;;11.27;7.50;;;-0.10;99.90;-0.60;102260.00;;;;4915050;28;111124;-66
2023/02/10 03:36:43;;;;;;;9.67;6.47;;;-0.20;99.90;-0.60;102256.00;;;;4918814;28;108435;-67
2023/02/10 03:39:08;;;;;;;7.93;5.10;;;-0.10;99.90;-0.60;102265.00;;;;4912508;28;116923;-66
2023/02/10 03:41:34;;;;;;;7.40;5.00;;;-0.30;99.90;-0.70;102261.00;;;;4914064;28;117893;-65
2023/02/10 03:44:00;;;;;;;8.50;5.37;;;0.20;99.90;-0.70;102259.00;;;;4912089;28;110657;-65
2023/02/10 03:46:25;;;;;;;9.40;5.80;;;-0.30;99.90;-0.70;102273.00;;;;4915012;28;105720;-65
2023/02/10 03:48:51;;;;;;;12.77;6.13;;;-0.30;99.90;-0.70;102279.00;;;;4913811;28;93963;-66
2023/02/10 03:51:17;;;;;;;9.57;6.00;;;-0.40;99.90;-0.70;102267.00;;;;4915402;28;104168;-66
2023/02/10 03:53:42;;;;;;;12.60;6.50;;;-0.40;99.90;-0.70;102269.00;;;;4914714;28;110129;-66
2023/02/10 03:56:08;;;;;;;12.83;6.27;;;-0.40;99.90;-0.70;102271.00;;;;4913617;28;96687;-66
2023/02/10 03:58:34;;;;;;;7.40;5.17;;;-0.40;99.90;-0.80;102275.00;;;;4914774;28;89297;-65
2023/02/10 04:01:00;;;;;;;10.77;7.13;;;-0.40;99.90;-0.80;102269.00;;;;4911453;28;116812;-65
2023/02/10 04:03:25;;;;;;;12.37;5.90;;;-0.40;99.90;-0.80;102276.00;;;;4911597;28;109337;-66
2023/02/10 04:05:51;;;;;;;8.93;6.37;;;-0.40;99.90;-0.70;102267.00;;;;4916060;28;108254;-66
2023/02/10 04:08:17;;;;;;;10.83;6.47;;;-0.40;99.90;-0.80;102261.00;;;;4913270;28;117661;-66
2023/02/10 04:10:43;;;;;;;12.63;7.97;;;-0.30;99.90;-0.70;102277.00;;;;4913524;28;91501;-65
2023/02/10 04:13:08;;;;;;;8.73;6.73;;;-0.40;99.90;-0.70;102272.00;;;;4917302;28;92462;-66
2023/02/10 04:15:34;;;;;;;16.03;8.57;;;-0.40;99.90;-0.80;102267.00;;;;4912457;28;106833;-66
2023/02/10 04:18:00;;;;;;;10.67;6.87;;;-0.40;99.90;-0.80;102273.00;;;;4914634;28;88910;-66
2023/02/10 04:20:26;;;;;;;9.00;7.23;;;-0.30;99.90;-0.80;102261.00;;;;4912170;28;88910;-65
2023/02/10 04:22:51;;;;;;;10.80;7.13;;;-0.40;99.90;-0.80;102266.00;;;;4912945;28;104044;-66
2023/02/10 04:25:17;;;;;;;14.47;7.10;;;-0.50;99.90;-0.80;102276.00;;;;4915552;28;87869;-65
2023/02/10 04:27:43;;;;;;;10.73;7.20;;;-0.70;99.90;-0.80;102276.00;;;;4914531;28;88887;-65
2023/02/10 04:30:10;;;;;;;14.53;8.03;;;-0.50;99.90;-0.80;102280.00;;;;4908534;28;118125;-66
2023/02/10 04:32:35;;;;;;;14.60;7.37;;;-0.40;99.90;-0.80;102274.00;;;;4914014;28;97202;-65
2023/02/10 04:35:02;;;;;;;12.83;7.63;;;-0.40;99.90;-0.70;102282.00;;;;4917260;28;108755;-65
2023/02/10 04:37:27;;;;;;;14.23;7.80;;;-0.40;99.90;-0.70;102283.00;;;;4911553;28;88384;-65
2023/02/10 04:39:53;;;;;;;13.83;7.70;;;-0.30;99.90;-0.70;102285.00;;;;4912962;28;116734;-65
2023/02/10 04:42:19;;;;;;;11.30;7.37;;;-0.40;99.90;-0.70;102280.00;;;;4913340;28;111624;-66
2023/02/10 04:44:44;;;;;;;9.83;7.30;;;-0.30;99.90;-0.70;102286.00;;;;4913791;28;90050;-65
2023/02/10 04:47:10;;;;;;;11.27;7.03;;;-0.40;99.90;-0.70;102284.00;;;;4914428;28;96359;-65
2023/02/10 04:49:36;;;;;;;14.07;7.97;;;-0.30;99.90;-0.70;102280.00;;;;4911799;28;117796;-65
2023/02/10 04:52:02;;;;;;;13.40;7.30;;;-0.40;99.90;-0.70;102275.00;;;;4914171;28;87893;-65
2023/02/10 04:54:27;;;;;;;11.00;7.27;;;-0.30;99.90;-0.70;102307.00;;;;4914082;28;90778;-65
2023/02/10 04:56:53;;;;;;;13.13;7.13;;;-0.30;99.90;-0.70;102298.00;;;;4914898;28;118286;-65
2023/02/10 04:59:19;;;;;;;11.73;7.90;;;0.50;99.90;-0.70;102282.00;;;;4914496;28;117574;-66
2023/02/10 05:01:44;;;;;;;9.40;6.47;;;-0.30;99.90;-0.70;102294.00;;;;4912648;28;97830;-65
2023/02/10 05:04:10;;;;;;;10.73;6.87;;;-0.30;99.90;-0.70;102292.00;;;;4916527;28;108401;-66
2023/02/10 05:06:36;;;;;;;10.77;7.53;;;-0.30;99.90;-0.70;102295.00;;;;4916673;28;99414;-65
2023/02/10 05:09:02;;;;;;;9.37;7.10;;;-0.30;99.90;-0.70;102299.00;;;;4914118;28;88128;-65
2023/02/10 05:11:28;;;;;;;10.53;7.30;;;-0.30;99.90;-0.70;102298.00;;;;4914520;28;109959;-66
2023/02/10 05:13:54;;;;;;;14.43;7.83;;;-0.30;99.90;-0.70;102296.00;;;;4914301;28;109812;-65
2023/02/10 05:16:19;;;;;;;9.70;7.40;;;-0.30;99.90;-0.70;102299.00;;;;4914693;28;88042;-64
2023/02/10 05:18:45;;;;;;;9.73;7.53;;;-0.30;99.90;-0.70;102296.00;;;;4909381;28;116480;-65
2023/02/10 05:21:13;;;;;;;12.33;8.00;;;-0.40;99.90;-0.70;102302.00;;;;4911499;28;110394;-65
2023/02/10 05:23:39;;;;;;;19.67;8.17;;;-0.40;99.90;-0.70;102314.00;;;;4907154;28;87775;-64
2023/02/10 05:26:05;;;;;;;11.20;7.73;;;-0.40;99.90;-0.70;102299.00;;;;4914642;28;88806;-64
2023/02/10 05:28:31;;;;;;;12.13;7.77;;;-0.40;99.90;-0.70;102311.00;;;;4909918;28;116320;-64
2023/02/10 05:30:57;;;;;;;15.33;8.50;;;-0.40;99.90;-0.80;102316.00;;;;4910365;28;103104;-65
2023/02/10 05:33:22;;;;;;;9.90;7.93;;;-0.40;99.90;-0.80;102315.00;;;;4910183;28;87743;-65
2023/02/10 05:35:48;;;;;;;15.97;8.13;;;-0.40;99.90;-0.90;102319.00;;;;4909468;28;119619;-66
2023/02/10 05:38:14;;;;;;;12.07;7.97;;;-0.50;99.90;-1.00;102322.00;;;;4908573;28;117928;-66
2023/02/10 05:40:39;;;;;;;21.27;9.33;;;-0.60;99.90;-1.10;102327.00;;;;4913286;28;108793;-66
2023/02/10 05:43:06;;;;;;;16.63;8.60;;;-0.60;99.90;-1.10;102335.00;;;;4908497;28;107213;-66
2023/02/10 05:45:32;;;;;;;14.80;8.57;;;-0.70;99.90;-1.20;102345.00;;;;4909045;28;87962;-65
2023/02/10 05:47:57;;;;;;;13.23;8.90;;;-0.70;99.90;-1.30;102356.00;;;;4911897;28;89203;-65
2023/02/10 05:50:23;;;;;;;12.73;8.53;;;-0.80;99.90;-1.40;102341.00;;;;4910489;28;110478;-65
2023/02/10 05:52:48;;;;;;;13.80;9.50;;;-0.80;99.90;-1.40;102349.00;;;;4914316;28;108926;-65
2023/02/10 05:55:14;;;;;;;16.53;9.67;;;-0.90;99.90;-1.50;102350.00;;;;4910341;28;116017;-66
2023/02/10 05:57:40;;;;;;;15.53;8.90;;;-1.00;99.90;-1.50;102348.00;;;;4910602;28;113121;-65
2023/02/10 06:00:07;;;;;;;14.63;8.67;;;-1.10;99.90;-1.40;102348.00;;;;4906727;28;109318;-65
2023/02/10 06:02:33;;;;;;;14.33;8.80;;;-1.00;99.90;-1.40;102347.00;;;;4911585;28;88963;-65
2023/02/10 06:04:58;;;;;;;15.53;7.77;;;-1.00;99.90;-1.30;102348.00;;;;4909696;28;117648;-65
2023/02/10 06:07:24;;;;;;;14.93;8.87;;;-0.80;99.90;-1.30;102345.00;;;;4909462;28;116914;-66
2023/02/10 06:09:50;;;;;;;13.30;8.10;;;-1.00;99.90;-1.20;102341.00;;;;4910496;28;110029;-65
2023/02/10 06:12:15;;;;;;;15.53;9.57;;;-0.90;99.90;-1.20;102344.00;;;;4908939;28;109951;-65
2023/02/10 06:14:41;;;;;;;10.93;8.43;;;-0.90;99.90;-1.10;102348.00;;;;4910050;28;98818;-65
2023/02/10 06:17:10;;;;;;;15.93;9.07;;;-0.80;99.90;-1.10;102350.00;;;;4909689;28;115333;-64
2023/02/10 06:19:36;;;;;;;16.47;11.13;;;-0.70;99.90;-1.00;102350.00;;;;4911589;28;87727;-66
2023/02/10 06:22:03;;;;;;;13.03;9.33;;;-0.70;99.90;-1.00;102356.00;;;;4908991;28;87849;-65
2023/02/10 06:24:29;;;;;;;14.13;9.27;;;-0.60;99.90;-0.90;102372.00;;;;4906446;28;90177;-64
2023/02/10 06:26:55;;;;;;;14.00;8.63;;;-0.50;99.90;-0.90;102353.00;;;;4907615;28;118501;-65
2023/02/10 06:29:21;;;;;;;13.27;8.47;;;-0.30;99.90;-0.90;102357.00;;;;4911586;28;87982;-64
2023/02/10 06:31:47;;;;;;;16.93;9.53;;;-0.50;99.90;-0.80;102358.00;;;;4908566;28;98276;-64
2023/02/10 06:34:12;;;;;;;13.37;7.77;;;-0.50;99.90;-0.80;102359.00;;;;4907145;28;87975;-65
2023/02/10 06:36:38;;;;;;;14.70;9.90;;;-0.40;99.90;-0.80;102371.00;;;;4909813;28;116290;-64
2023/02/10 06:39:04;;;;;;;19.10;11.03;;;-0.40;99.90;-0.70;102368.00;;;;4912741;28;103280;-65
2023/02/10 06:41:29;;;;;;;13.60;9.13;;;-0.30;99.90;-0.70;102375.00;;;;4911667;28;108698;-64
2023/02/10 06:43:55;;;;;;;15.53;9.77;;;-0.30;99.90;-0.60;102383.00;;;;4909289;28;88838;-65
2023/02/10 06:46:21;;;;;;;13.37;10.70;;;-0.20;99.90;-0.60;102392.00;;;;4909700;28;117554;-64
2023/02/10 06:48:47;;;;;;;16.47;9.87;;;-0.30;99.90;-0.50;102390.00;;;;4909506;28;88628;-64
2023/02/10 06:51:13;;;;;;;13.07;9.77;;;-0.10;99.90;-0.50;102382.00;;;;4912479;28;90572;-63
2023/02/10 06:53:39;;;;;;;12.30;9.97;;;-0.30;99.90;-0.50;102377.00;;;;4908070;28;115858;-64
2023/02/10 06:56:05;;;;;;;12.37;7.93;;;-0.10;99.90;-0.50;102371.00;;;;4912859;28;107931;-65
2023/02/10 06:58:31;;;;;;;14.67;8.00;;;-0.10;99.90;-0.60;102378.00;;;;4911496;28;107236;-64
2023/02/10 07:00:58;;;;;;;14.43;9.13;;;-0.20;99.90;-0.60;102367.00;;;;4914096;28;88893;-64
2023/02/10 07:03:24;;;;;;;15.77;9.90;;;-0.20;99.90;-0.60;102389.00;;;;4917596;28;89100;-65
2023/02/10 07:05:50;;;;;;;21.77;9.83;;;-0.20;99.90;-0.50;102381.00;;;;4912388;28;117627;-66
2023/02/10 07:08:16;;;;;;;18.50;11.37;;;-0.20;99.90;-0.50;102388.00;;;;4907364;28;109411;-64
2023/02/10 07:10:42;;;;;;;18.23;10.40;;;-0.20;99.90;-0.50;102382.00;;;;4912354;28;108914;-65
2023/02/10 07:13:08;;;;;;;16.13;11.00;;;-0.20;99.90;-0.50;102385.00;;;;4910827;28;118558;-65
2023/02/10 07:15:33;;;;;;;17.90;10.43;;;0.00;99.90;-0.50;102372.00;;;;4913192;28;107617;-65
2023/02/10 07:17:59;;;;;;;20.10;10.23;;;-0.10;99.90;-0.50;102370.00;;;;4908078;28;108808;-64
2023/02/10 07:20:26;;;;;;;18.90;9.83;;;-0.10;99.90;-0.50;102382.00;;;;4910316;28;88067;-64
2023/02/10 07:22:51;;;;;;;15.20;10.73;;;-0.10;99.90;-0.40;102387.00;;;;4917437;28;101043;-65
2023/02/10 07:25:18;;;;;;;15.70;10.33;;;-0.10;99.90;-0.30;102377.00;;;;4907937;28;117745;-65
2023/02/10 07:27:44;;;;;;;21.50;11.50;;;-0.10;99.90;-0.20;102390.00;;;;4909193;28;88832;-64
2023/02/10 07:30:11;;;;;;;22.67;11.43;;;0.10;99.90;-0.20;102390.00;;;;4911295;28;108344;-64
2023/02/10 07:32:37;;;;;;;19.67;11.03;;;0.10;99.90;-0.10;102394.00;;;;4908869;28;89050;-66
2023/02/10 07:35:03;;;;;;;18.93;10.03;;;0.10;99.90;0.00;102391.00;;;;4909281;28;99233;-65
2023/02/10 07:37:29;;;;;;;16.80;10.83;;;0.30;99.90;0.10;102412.00;;;;4909583;28;88974;-64
2023/02/10 07:39:55;;;;;;;23.20;12.30;;;0.40;99.90;0.20;102414.00;;;;4906670;28;88158;-64
2023/02/10 07:42:21;;;;;;;20.20;10.63;;;0.50;99.90;0.30;102408.00;;;;4911360;28;116429;-65
2023/02/10 07:44:47;;;;;;;20.63;12.53;;;0.60;99.90;0.40;102417.00;;;;4910593;28;117788;-63
2023/02/10 07:47:12;;;;;;;15.37;10.67;;;0.70;99.90;0.50;102412.00;;;;4911196;28;113209;-65
2023/02/10 07:49:38;;;;;;;18.73;11.63;;;0.70;99.90;0.60;102418.00;;;;4911204;28;107925;-64
2023/02/10 07:52:04;;;;;;;15.17;11.10;;;1.00;99.90;0.80;102408.00;;;;4908344;28;88687;-64
2023/02/10 07:54:29;;;;;;;18.67;10.70;;;1.50;99.90;0.90;102412.00;;;;4911238;28;109601;-64
2023/02/10 07:56:56;;;;;;;16.00;10.20;;;1.10;99.90;1.00;102414.00;;;;4912405;28;110776;-63
2023/02/10 07:59:22;;;;;;;15.00;8.57;;;1.30;99.90;1.10;102406.00;;;;4909133;28;108959;-63
2023/02/10 08:01:47;;;;;;;27.77;12.77;;;1.50;99.90;1.20;102415.00;;;;4906672;28;118576;-63
2023/02/10 08:04:13;;;;;;;16.83;11.73;;;1.60;99.90;1.30;102410.00;;;;4908187;28;103274;-64
2023/02/10 08:06:39;;;;;;;20.33;12.10;;;1.70;99.90;1.40;102414.00;;;;4908231;28;90427;-64
2023/02/10 08:09:07;;;;;;;13.60;9.83;;;1.70;99.90;1.30;102415.00;;;;4911289;28;109097;-65
2023/02/10 08:11:33;;;;;;;12.67;8.77;;;2.50;99.90;1.40;102412.00;;;;4909527;28;89587;-64
2023/02/10 08:14:00;;;;;;;17.30;10.37;;;1.70;99.90;1.40;102413.00;;;;4909338;28;116229;-64
2023/02/10 08:16:26;;;;;;;19.37;12.77;;;1.80;99.90;1.40;102430.00;;;;4907703;28;87894;-65
2023/02/10 08:18:52;;;;;;;17.13;10.23;;;1.80;99.90;1.40;102423.00;;;;4912140;28;108055;-64
2023/02/10 08:21:17;;;;;;;20.70;11.30;;;1.70;99.90;1.40;102427.00;;;;4911303;28;117183;-65
2023/02/10 08:23:43;;;;;;;16.27;10.90;;;1.80;99.90;1.30;102428.00;;;;4914807;28;116867;-64
2023/02/10 08:26:11;;;;;;;18.00;11.57;;;1.70;99.90;1.40;102433.00;;;;4913059;28;113244;-64
2023/02/10 08:28:39;;;;;;;17.90;10.87;;;1.70;99.90;1.50;102436.00;;;;4912477;28;88963;-64
2023/02/10 08:31:07;;;;;;;15.17;9.33;;;1.80;99.90;1.70;102431.00;;;;4911708;28;88452;-64
2023/02/10 08:33:34;;;;;;;20.63;11.63;;;1.90;99.90;1.90;102437.00;;;;4913694;28;88996;-65
2023/02/10 08:36:12;;;;;;;21.93;11.97;;;2.50;99.90;2.00;102439.00;;;;4911828;28;96909;-65
2023/02/10 08:38:38;;;;;;;22.80;11.33;;;2.20;99.90;2.10;102436.00;;;;4912161;28;101362;-64
2023/02/10 08:41:04;;;;;;;20.10;10.80;;;2.40;99.90;2.10;102442.00;;;;4911159;28;89148;-65
2023/02/10 08:43:30;;;;;;;16.17;11.00;;;2.40;99.90;2.20;102449.00;;;;4910493;28;118774;-64
2023/02/10 08:45:58;;;;;;;17.60;10.47;;;2.50;99.90;2.20;102454.00;;;;4909669;28;112741;-65
2023/02/10 08:48:26;;;;;;;19.77;11.97;;;2.50;99.90;2.30;102463.00;;;;4912776;28;87847;-65
2023/02/10 08:50:52;;;;;;;16.83;10.10;;;2.60;99.90;2.30;102460.00;;;;4912819;28;88773;-64
2023/02/10 08:53:19;;;;;;;18.83;10.60;;;2.60;99.90;2.30;102456.00;;;;4913917;28;89754;-64
2023/02/10 08:55:59;;;;;;;16.10;11.47;;;2.60;99.90;2.40;102460.00;;;;4911201;28;104113;-64
2023/02/10 08:58:24;;;;;;;17.67;11.30;;;2.70;99.90;2.40;102456.00;;;;4909920;28;102746;-66
2023/02/10 09:00:50;;;;;;;18.87;11.63;;;2.70;99.90;2.40;102452.00;;;;4910135;28;88399;-64
2023/02/10 09:03:16;;;;;;;18.40;12.83;;;2.70;99.90;2.40;102468.00;;;;4913927;28;117720;-65
2023/02/10 09:05:43;;;;;;;15.77;12.17;;;2.80;99.90;2.40;102483.00;;;;4908992;28;90374;-64
2023/02/10 09:08:09;;;;;;;18.93;11.90;;;2.60;99.90;2.40;102459.00;;;;4909499;28;87043;-65
2023/02/10 09:10:35;;;;;;;27.33;12.53;;;2.70;99.90;2.40;102465.00;;;;4915707;28;99333;-64
2023/02/10 09:13:00;;;;;;;19.83;11.20;;;2.70;99.90;2.50;102464.00;;;;4912233;28;117387;-65
2023/02/10 09:15:26;;;;;;;19.13;12.70;;;2.80;99.90;2.50;102457.00;;;;4911518;28;89159;-64
2023/02/10 09:17:52;;;;;;;19.83;10.97;;;2.80;99.90;2.60;102459.00;;;;4912804;28;109534;-64
2023/02/10 09:20:18;;;;;;;21.33;10.93;;;2.80;99.90;2.60;102449.00;;;;4911582;28;118000;-65
2023/02/10 09:22:43;;;;;;;17.93;11.47;;;2.80;99.90;2.70;102455.00;;;;4909900;28;115564;-65
2023/02/10 09:25:09;;;;;;;13.60;9.90;;;3.00;99.90;2.80;102452.00;;;;4908861;28;88038;-65
2023/02/10 09:27:35;;;;;;;17.77;11.10;;;3.00;99.90;2.80;102444.00;;;;4912728;28;91287;-65
2023/02/10 09:30:01;;;;;;;16.63;9.87;;;3.10;99.90;3.00;102447.00;;;;4908316;28;116870;-66
2023/02/10 09:32:26;;;;;;;23.30;11.93;;;3.10;99.90;3.10;102450.00;;;;4924136;28;116306;-66
2023/02/10 09:34:52;;;;;;;20.03;11.20;;;3.30;99.90;3.30;102448.00;;;;4910339;28;87901;-66
2023/02/10 09:37:18;;;;;;;22.20;11.37;;;3.50;99.90;3.40;102455.00;;;;4909974;28;87735;-65
2023/02/10 09:39:44;;;;;;;24.97;12.27;;;3.50;99.90;3.40;102461.00;;;;4909537;28;119112;-65
2023/02/10 09:42:23;;;;;;;20.93;11.40;;;3.60;99.90;3.50;102459.00;;;;4910621;28;89702;-66
2023/02/10 09:44:59;;;;;;;19.23;12.23;;;3.70;99.90;3.50;102453.00;;;;4910327;28;87874;-66
2023/02/10 09:47:48;;;;;;;25.90;12.67;;;4.80;99.90;3.50;102438.00;;;;4923572;28;88115;-65
2023/02/10 09:50:34;;;;;;;22.67;12.30;;;3.80;99.90;3.40;102451.00;;;;4909497;28;88151;-66
2023/02/10 09:53:20;;;;;;;14.53;9.67;;;3.70;99.90;3.30;102457.00;;;;4906539;28;102386;-65
2023/02/10 09:56:04;;;;;;;18.57;12.03;;;3.70;99.90;3.10;102457.00;;;;4911360;28;87658;-67
2023/02/10 09:58:44;;;;;;;18.37;10.73;;;3.50;99.90;3.10;102463.00;;;;4911583;28;100467;-66
2023/02/10 10:01:30;;;;;;;27.03;13.30;;;3.40;99.90;3.10;102461.00;;;;4913528;28;88815;-66
2023/02/10 10:04:08;;;;;;;15.40;9.90;;;3.30;99.90;3.10;102472.00;;;;4924767;28;87966;-65
2023/02/10 10:06:39;;;;;;;18.23;11.43;;;3.40;99.90;3.20;102467.00;;;;4928711;28;89600;-66
2023/02/10 10:09:08;;;;;;;17.13;10.90;;;3.50;99.90;3.20;102463.00;;;;4928637;28;87996;-65
2023/02/10 10:11:45;;;;;;;16.47;11.30;;;3.50;99.90;3.20;102461.00;;;;4913024;28;96076;-66
2023/02/10 10:14:26;;;;;;;19.90;11.33;;;3.50;99.90;3.20;102471.00;;;;4921954;28;89215;-66
2023/02/10 10:17:20;;;;;;;16.97;10.50;;;3.40;99.90;3.20;102478.00;;;;4911941;28;87954;-66
2023/02/10 10:20:25;;;;;;;20.33;11.23;;;3.30;99.90;3.10;102484.00;;;;4914307;28;88251;-65
2023/02/10 10:23:35;;;;;;;17.67;11.00;;;3.40;99.90;3.10;102487.00;;;;4912051;28;88185;-66
2023/02/10 10:26:47;;;;;;;20.40;10.90;;;3.30;99.90;3.10;102490.00;;;;4909211;28;109814;-65
2023/02/10 10:29:36;;;;;;;24.10;13.60;;;3.40;99.90;3.10;102479.00;;;;4890570;28;106910;-66
2023/02/10 10:32:17;;;;;;;17.33;10.27;;;3.40;99.90;3.10;102478.00;;;;4912156;28;88177;-66
2023/02/10 10:34:51;;;;;;;25.67;12.97;;;3.30;99.90;3.20;102473.00;;;;4912179;28;90160;-66
2023/02/10 10:37:22;;;;;;;22.37;11.47;;;3.50;99.90;3.30;102470.00;;;;4923565;28;89089;-66
2023/02/10 10:40:08;;;;;;;22.97;10.57;;;3.50;99.90;3.30;102482.00;;;;4910427;28;87950;-66
2023/02/10 10:42:48;;;;;;;26.57;12.97;;;3.50;99.90;3.40;102493.00;;;;4904437;28;89785;-66
2023/02/10 10:45:41;;;;;;;15.70;10.90;;;3.50;99.90;3.50;102480.00;;;;4909959;28;88004;-65
2023/02/10 10:48:27;;;;;;;23.93;12.27;;;3.80;99.90;3.60;102470.00;;;;4922929;28;88562;-66
2023/02/10 10:50:57;;;;;;;18.10;11.07;;;3.70;99.90;3.80;102485.00;;;;4912182;28;88222;-66